Nearby METAR Reports

 

KSJC - San Jose, California, USA
Distance from station: NE 14km
Actualización: 18/10/2019 08:53
Despejado
Despejado
 Viento del SSE
Viento: SSE 6 km/h
Temperatura: 13°C
Rocío: 10°C
Humedad: 82%
Barómetro: 1017.3 hPa
Clouds: Despejado
Visibility: 16 km
2019/10/18 06:53 KSJC 180653Z 15003KT 10SM CLR 13/10 A3004 RMK AO2 SLP171 LAST T01280100
KNUQ - Moffett Nas/Mtn, California, USA
Distance from station: N 14km
Actualización: 18/10/2019 08:56

 
Barómetro: 1017.3 hPa
2019/10/18 06:56 KNUQ 180656Z A3004 RMK AO2 SLP176 PWINO $
 
KPAO - Palo Alto, California, USA
Distance from station: NNO 23km
Actualización: 18/10/2019 05:47
NOT Current
Despejado
Despejado
 Viento del ONO
Viento: ONO 20 km/h
Temperatura: 14°C
Rocío: 9°C
Humedad: 72%
Barómetro: 1015.6 hPa
Clouds: Despejado
Visibility: 16 km
2019/10/18 03:47 KPAO 180347Z 30011KT 10SM SKC 14/09 A2999 RMK LAST
KRHV - San Jose/Reid, California, USA
Distance from station: ENE 19km
Actualización: 18/10/2019 06:55
NOT Current
Parcialmente nuboso
Parcialmente nuboso
 Viento del calm
Viento: Calma
Temperatura: 14°C
Rocío: 11°C
Humedad: 82%
Barómetro: 1016.3 hPa
Clouds: Parcialmente nuboso
Visibility: 16 km
Cloud details: Parcialmente nuboso 366 m
2019/10/18 04:55 KRHV 180455Z 00000KT 10SM SCT012 14/11 A3001 RMK LAST
 
KOAK - Oakland, California, USA
Distance from station: NNO 50km
Actualización: 18/10/2019 08:53
Despejado
Despejado
 Viento del NNO
Viento: NNO 11 km/h
Temperatura: 14°C
Rocío: 8°C
Humedad: 67%
Barómetro: 1016.9 hPa
Clouds: Despejado
Visibility: 16 km
2019/10/18 06:53 KOAK 180653Z 34006KT 10SM CLR 14/08 A3003 RMK AO2 SLP167 T01440083
KSQL - San Carlos Airpo, California, USA
Distance from station: NO 34km
Actualización: 18/10/2019 05:47
NOT Current
Despejado
Despejado
 Viento del O
Viento: O 17 km/h
Temperatura: 15°C
Rocío: 9°C
Humedad: 68%
Barómetro: 1015.9 hPa
Clouds: Despejado
Visibility: 16 km
2019/10/18 03:47 KSQL 180347Z 28009KT 10SM SKC 15/09 A3000 RMK LAST
 
KSFO - San Francisco, California, USA
Distance from station: NO 49km
Actualización: 18/10/2019 08:56
Despejado
Despejado
 Viento del O
Viento: O 19 km/h
Temperatura: 13°C
Rocío: 9°C
Humedad: 77%
Barómetro: 1016.6 hPa
Clouds: Despejado
Visibility: 16 km
2019/10/18 06:56 KSFO 180656Z 28010KT 10SM CLR 13/09 A3002 RMK AO2 SLP166 T01330089
KE16 - San Martin, California, USA
Distance from station: ESE 43km
Actualización: 18/10/2019 09:15
Parcialmente nuboso
Parcialmente nuboso
 Viento del ONO
Viento: ONO 9 km/h
Temperatura: 12°C
Rocío: 8°C
Humedad: 77%
Barómetro: 1017.3 hPa
Clouds: Parcialmente nuboso
Visibility: 16 km
Cloud details: Parcialmente nuboso 549 m
2019/10/18 07:15 KE16 180715Z AUTO 29005KT 10SM SCT018 12/08 A3004 RMK AO2
 
KWVI - Watsonville, California, USA
Distance from station: SSE 44km
Actualización: 18/10/2019 08:53
Despejado
Despejado
 Viento del calm
Viento: Calma
Temperatura: 11°C
Rocío: 7°C
Humedad: 77%
Barómetro: 1016.6 hPa
Clouds: Despejado
Visibility: 16 km
2019/10/18 06:53 KWVI 180653Z AUTO 00000KT 10SM CLR 11/07 A3002 RMK AO2 SLP165 T01060072
KHAF - Half Moon Bay, California, USA
Distance from station: ONO 50km
Actualización: 18/10/2019 09:15
Despejado
Despejado
 Viento del N
Viento: N 22 km/h, Racha: 35 km/h
Temperatura: 13°C
Rocío: 9°C
Humedad: 77%
Barómetro: 1017.3 hPa
Clouds: Despejado
Visibility: 11 km
2019/10/18 07:15 KHAF 180715Z AUTO 36012G19KT 7SM CLR 13/09 A3004 RMK AO2
 
KHWD - Hayward, California, USA
Distance from station: N 44km
Actualización: 18/10/2019 08:54
Despejado
Despejado
 Viento del SE
Viento: SE 7 km/h
Temperatura: 12°C
Rocío: 8°C
Humedad: 77%
Barómetro: 1016.6 hPa
Clouds: Despejado
Visibility: 16 km
2019/10/18 06:54 KHWD 180654Z AUTO 13004KT 10SM CLR 12/08 A3002 RMK AO2 SLP176 T01220078
KLVK - Livermore, California, USA
Distance from station: NNE 51km
Actualización: 18/10/2019 08:53
Despejado
Despejado
 Viento del calm
Viento: Calma
Temperatura: 12°C
Rocío: 7°C
Humedad: 72%
Barómetro: 1016.6 hPa
Clouds: Despejado
Visibility: 16 km
2019/10/18 06:53 KLVK 180653Z AUTO 00000KT 10SM CLR 12/07 A3002 RMK AO2 SLP161 T01170072